Time;durP1;ratioP1;P1;durP2;ratioP2;P2;SDS_P1;SDS_P2;PMS_P1;PMS_P2;Temp;Humidity;BMP_temperature;BMP_pressure;BME280_temperature;BME280_humidity;BME280_pressure;Samples;Min_cycle;Max_cycle;Signal;HPM_P1;HPM_P2
2022/11/27 00:00:33;;;;;;;29.65;8.25;;;;;;;4.42;100.00;102477.81;4886550;29;20056;-75
2022/11/27 00:02:59;;;;;;;23.13;8.15;;;;;;;4.37;100.00;102472.59;4886354;29;20152;-75
2022/11/27 00:05:24;;;;;;;21.98;8.35;;;;;;;4.29;100.00;102479.72;4886603;29;20048;-75
2022/11/27 00:07:49;;;;;;;23.77;8.68;;;;;;;4.33;100.00;102478.78;4886086;29;20041;-76
2022/11/27 00:10:15;;;;;;;21.73;7.90;;;;;;;4.38;100.00;102486.66;4885122;29;20056;-76
2022/11/27 00:12:40;;;;;;;20.08;7.95;;;;;;;4.39;100.00;102476.06;4884976;29;20051;-74
2022/11/27 00:15:06;;;;;;;25.75;8.40;;;;;;;4.27;100.00;102476.22;4888831;29;20036;-74
2022/11/27 00:17:31;;;;;;;22.88;8.32;;;;;;;4.26;100.00;102479.72;4889468;29;20525;-73
2022/11/27 00:19:58;;;;;;;18.58;8.23;;;;;;;4.25;100.00;102469.19;4887911;29;20155;-75
2022/11/27 00:22:25;;;;;;;34.70;8.63;;;;;;;4.21;100.00;102476.28;4876459;29;20040;-74
2022/11/27 00:24:51;;;;;;;19.42;8.70;;;;;;;4.26;100.00;102460.38;4889987;29;20075;-75
2022/11/27 00:27:16;;;;;;;36.72;9.45;;;;;;;4.25;100.00;102469.19;4888948;29;20045;-75
2022/11/27 00:29:42;;;;;;;24.17;9.13;;;;;;;4.21;100.00;102468.34;4890577;29;20128;-75
2022/11/27 00:32:07;;;;;;;25.70;9.10;;;;;;;4.21;100.00;102456.91;4892235;29;20053;-75
2022/11/27 00:34:33;;;;;;;31.55;11.02;;;;;;;4.10;100.00;102457.03;4889355;29;20045;-75
2022/11/27 00:36:58;;;;;;;28.45;9.07;;;;;;;4.16;100.00;102463.13;4890799;29;20219;-75
2022/11/27 00:39:24;;;;;;;38.47;9.38;;;;;;;4.19;100.00;102458.72;4878462;29;20402;-75
2022/11/27 00:41:49;;;;;;;22.00;9.30;;;;;;;4.23;100.00;102453.38;4881068;29;20040;-76
2022/11/27 00:44:15;;;;;;;24.45;9.80;;;;;;;4.24;100.00;102454.25;4878288;29;20457;-75
2022/11/27 00:46:41;;;;;;;21.60;9.95;;;;;;;4.22;100.00;102459.56;4890497;29;20118;-76
2022/11/27 00:49:07;;;;;;;30.15;11.27;;;;;;;4.21;100.00;102460.44;4890072;29;20485;-75
2022/11/27 00:51:33;;;;;;;23.85;9.18;;;;;;;4.17;100.00;102450.81;4892631;29;20511;-75
2022/11/27 00:53:59;;;;;;;29.63;9.80;;;;;;;4.18;100.00;102444.63;4869312;29;20068;-75
2022/11/27 00:56:30;;;;;;;35.38;10.43;;;;;;;4.18;100.00;102435.84;4890239;29;20766;-76
2022/11/27 00:58:57;;;;;;;30.48;11.50;;;;;;;4.25;100.00;102437.50;4891115;29;20040;-74
2022/11/27 01:01:26;;;;;;;36.78;9.80;;;;;;;4.22;100.00;102425.25;4890623;29;20074;-74
2022/11/27 01:03:52;;;;;;;27.67;10.38;;;;;;;4.29;100.00;102428.66;4880251;29;20049;-75
2022/11/27 01:06:18;;;;;;;32.78;10.38;;;;;;;4.30;100.00;102426.00;4887215;29;20060;-75
2022/11/27 01:08:44;;;;;;;32.42;9.43;;;;;;;4.32;100.00;102433.94;4889211;29;20098;-75
2022/11/27 01:11:20;;;;;;;27.13;9.23;;;;;;;4.33;100.00;102441.81;4888622;29;20163;-76
2022/11/27 01:13:45;;;;;;;34.53;9.10;;;;;;;4.37;100.00;102437.38;4890324;29;20084;-75
2022/11/27 01:16:14;;;;;;;34.30;11.70;;;;;;;4.38;100.00;102429.44;4890715;29;20734;-76
2022/11/27 01:18:41;;;;;;;25.88;9.23;;;;;;;4.39;100.00;102431.19;4878919;29;20119;-74
2022/11/27 01:21:08;;;;;;;27.52;8.38;;;;;;;4.29;100.00;102433.94;4890080;29;20221;-74
2022/11/27 01:23:33;;;;;;;28.20;9.48;;;;;;;4.41;100.00;102429.38;4890439;29;20119;-78
2022/11/27 01:26:00;;;;;;;36.13;9.90;;;;;;;4.43;100.00;102412.66;4889117;29;20053;-76
2022/11/27 01:28:26;;;;;;;30.52;9.85;;;;;;;4.39;100.00;102419.75;4889801;29;20048;-75
2022/11/27 01:30:52;;;;;;;24.98;9.00;;;;;;;4.46;100.00;102413.47;4890104;29;20056;-74
2022/11/27 01:33:17;;;;;;;26.85;10.48;;;;;;;4.49;100.00;102413.44;4889765;29;20870;-75
2022/11/27 01:35:55;;;;;;;21.10;8.60;;;;;;;4.49;100.00;102417.88;4890419;29;20033;-76
2022/11/27 01:38:21;;;;;;;24.20;8.15;;;;;;;4.43;100.00;102416.19;4889622;29;20078;-75
2022/11/27 01:40:47;;;;;;;27.80;8.82;;;;;;;4.51;100.00;102409.00;4888438;29;20431;-75
2022/11/27 01:43:16;;;;;;;22.95;9.35;;;;;;;4.44;100.00;102403.84;4889152;29;20103;-74
2022/11/27 01:45:44;;;;;;;22.33;8.45;;;;;;;4.48;100.00;102411.72;4887732;29;20151;-75
2022/11/27 01:48:12;;;;;;;25.00;9.23;;;;;;;4.47;100.00;102406.44;4889943;29;20067;-74
2022/11/27 01:50:39;;;;;;;30.63;8.13;;;;;;;4.45;100.00;102403.81;4887588;29;20052;-76
2022/11/27 01:53:15;;;;;;;19.60;8.27;;;;;;;4.46;100.00;102404.69;4889050;29;20045;-74
2022/11/27 01:55:51;;;;;;;27.17;8.70;;;;;;;4.44;100.00;102401.19;4889020;29;20044;-76
2022/11/27 01:58:22;;;;;;;17.33;8.02;;;;;;;4.48;100.00;102398.50;4889539;29;20406;-75
2022/11/27 02:00:47;;;;;;;28.98;9.15;;;;;;;4.50;100.00;102395.84;4889045;29;20067;-75
2022/11/27 02:03:14;;;;;;;27.55;9.13;;;;;;;4.49;100.00;102407.31;4887532;29;20041;-75
2022/11/27 02:05:40;;;;;;;25.50;7.93;;;;;;;4.47;100.00;102391.47;4889226;29;20052;-76
2022/11/27 02:08:08;;;;;;;22.92;7.15;;;;;;;4.45;100.00;102381.81;4889433;29;20028;-76
2022/11/27 02:10:50;;;;;;;24.80;7.18;;;;;;;4.46;100.00;102373.00;4889435;29;20045;-75
2022/11/27 02:13:37;;;;;;;15.95;7.13;;;;;;;4.46;100.00;102370.34;4889798;29;20131;-76
2022/11/27 02:16:17;;;;;;;22.83;7.57;;;;;;;4.33;100.00;102357.31;4888828;29;20086;-75
2022/11/27 02:18:48;;;;;;;23.90;7.97;;;;;;;4.30;100.00;102340.63;4889355;29;20083;-76
2022/11/27 02:21:42;;;;;;;15.50;6.07;;;;;;;4.25;100.00;102342.47;4889317;29;20135;-75
2022/11/27 02:24:41;;;;;;;24.17;7.07;;;;;;;4.23;100.00;102325.78;4877094;29;20053;-76
2022/11/27 02:27:48;;;;;;;25.23;7.18;;;;;;;4.25;100.00;102324.84;4888583;29;20379;-76
2022/11/27 02:30:13;;;;;;;34.08;8.10;;;;;;;4.22;100.00;102327.56;4882948;29;20595;-76
2022/11/27 02:32:55;;;;;;;28.30;7.60;;;;;;;4.18;100.00;102319.69;4888704;29;20048;-74
2022/11/27 02:35:30;;;;;;;23.98;6.90;;;;;;;4.21;100.00;102317.84;4887039;29;20220;-75
2022/11/27 02:38:01;;;;;;;19.98;6.90;;;;;;;4.22;100.00;102316.09;4887268;29;20036;-75
2022/11/27 02:40:30;;;;;;;20.92;6.72;;;;;;;4.29;100.00;102307.22;4888630;29;20053;-74
2022/11/27 02:43:05;;;;;;;26.48;7.65;;;;;;;4.33;100.00;102308.91;4888627;29;20510;-75
2022/11/27 02:45:39;;;;;;;18.08;7.00;;;;;;;4.38;100.00;102301.81;4888361;29;20501;-74
2022/11/27 02:48:07;;;;;;;22.88;6.88;;;;;;;4.39;100.00;102307.06;4888972;29;20070;-75
2022/11/27 02:50:34;;;;;;;20.00;7.22;;;;;;;4.35;100.00;102309.75;4888531;29;20204;-75
2022/11/27 02:53:05;;;;;;;22.30;7.18;;;;;;;4.33;100.00;102309.78;4889234;29;20044;-75
2022/11/27 02:55:34;;;;;;;24.00;6.85;;;;;;;4.39;100.00;102304.41;4888179;29;20072;-75
2022/11/27 02:58:02;;;;;;;19.80;6.70;;;;;;;4.38;100.00;102307.09;4890145;29;20056;-74
2022/11/27 03:00:29;;;;;;;22.92;6.45;;;;;;;4.45;100.00;102299.94;4889525;29;20050;-76
2022/11/27 03:02:59;;;;;;;21.40;6.70;;;;;;;4.44;100.00;102303.50;4887679;29;20072;-74
2022/11/27 03:05:29;;;;;;;23.35;8.13;;;;;;;4.48;100.00;102299.91;4889768;29;20048;-76
2022/11/27 03:08:04;;;;;;;21.38;6.30;;;;;;;4.43;100.00;102297.34;4889681;29;20127;-75
2022/11/27 03:10:35;;;;;;;25.02;6.85;;;;;;;4.47;100.00;102290.22;4889238;29;20048;-74
2022/11/27 03:13:01;;;;;;;22.08;7.10;;;;;;;4.50;100.00;102287.53;4889634;29;20072;-74
2022/11/27 03:15:38;;;;;;;19.98;6.05;;;;;;;4.58;100.00;102296.25;4888757;29;20045;-76
2022/11/27 03:18:40;;;;;;;15.65;5.85;;;;;;;4.55;100.00;102293.63;4890822;29;20220;-76
2022/11/27 03:21:35;;;;;;;15.70;6.17;;;;;;;4.58;100.00;102297.09;4879027;29;20565;-76
2022/11/27 03:24:01;;;;;;;19.63;5.70;;;;;;;4.60;100.00;102290.03;4889451;29;20044;-73
2022/11/27 03:26:27;;;;;;;21.90;5.15;;;;;;;4.63;100.00;102291.75;4888409;29;20587;-75
2022/11/27 03:28:53;;;;;;;18.02;6.65;;;;;;;4.66;100.00;102289.03;4889693;29;20040;-76
2022/11/27 03:31:19;;;;;;;21.13;7.22;;;;;;;4.66;100.00;102282.00;4887613;29;20040;-75
2022/11/27 03:33:45;;;;;;;17.98;6.05;;;;;;;4.61;100.00;102272.41;4889082;29;20501;-74
2022/11/27 03:36:16;;;;;;;13.38;5.97;;;;;;;4.67;100.00;102274.97;4888645;29;20066;-74
2022/11/27 03:38:44;;;;;;;20.80;5.43;;;;;;;4.65;100.00;102279.38;4887506;29;20059;-74
2022/11/27 03:41:34;;;;;;;14.80;5.28;;;;;;;4.65;100.00;102263.53;4888567;29;20057;-75
2022/11/27 03:44:37;;;;;;;19.70;5.75;;;;;;;4.66;100.00;102265.28;4888663;29;20397;-76
2022/11/27 03:47:02;;;;;;;18.38;6.28;;;;;;;4.67;100.00;102272.31;4880617;29;20501;-74
2022/11/27 03:49:45;;;;;;;20.05;5.10;;;;;;;4.71;100.00;102276.63;4891156;29;20041;-74
2022/11/27 03:52:21;;;;;;;15.55;4.68;;;;;;;4.72;100.00;102272.22;4892503;29;20041;-74
2022/11/27 03:55:01;;;;;;;19.85;5.55;;;;;;;4.73;100.00;102269.56;4892347;29;20040;-74
2022/11/27 03:57:38;;;;;;;17.20;4.50;;;;;;;4.74;100.00;102266.03;4892171;29;20040;-76
2022/11/27 04:00:08;;;;;;;25.02;4.88;;;;;;;4.79;100.00;102261.53;4892433;29;20119;-75
2022/11/27 04:02:50;;;;;;;15.82;5.32;;;;;;;4.77;100.00;102268.63;4891784;29;20045;-75
2022/11/27 04:05:15;;;;;;;14.05;5.05;;;;;;;4.79;100.00;102258.03;4880299;29;20045;-75
2022/11/27 04:07:41;;;;;;;16.58;5.40;;;;;;;4.82;100.00;102250.03;4890049;29;20876;-75
2022/11/27 04:10:07;;;;;;;15.23;5.53;;;;;;;4.83;100.00;102255.31;4891431;29;20112;-72
2022/11/27 04:12:34;;;;;;;15.75;4.82;;;;;;;4.85;100.00;102256.16;4891181;29;20147;-74
2022/11/27 04:14:59;;;;;;;17.15;5.32;;;;;;;4.84;100.00;102251.75;4891580;29;20036;-75
2022/11/27 04:17:25;;;;;;;14.43;5.22;;;;;;;4.82;100.00;102243.00;4891403;29;20052;-75
2022/11/27 04:19:50;;;;;;;23.42;6.18;;;;;;;4.84;100.00;102240.31;4891058;29;20049;-75
2022/11/27 04:22:16;;;;;;;17.70;5.45;;;;;;;4.82;100.00;102236.81;4891061;29;20044;-74
2022/11/27 04:24:41;;;;;;;15.75;6.13;;;;;;;4.84;100.00;102240.31;4891013;29;20056;-74
2022/11/27 04:27:07;;;;;;;13.32;6.40;;;;;;;4.85;100.00;102231.50;4889375;29;20505;-75
2022/11/27 04:29:32;;;;;;;18.60;5.40;;;;;;;4.84;100.00;102227.13;4890766;29;20048;-75
2022/11/27 04:31:57;;;;;;;13.32;4.80;;;;;;;4.84;100.00;102238.56;4891095;29;20393;-75
2022/11/27 04:34:23;;;;;;;28.05;5.90;;;;;;;4.82;100.00;102234.19;4891083;29;20060;-75
2022/11/27 04:36:48;;;;;;;18.90;5.72;;;;;;;4.82;100.00;102236.81;4890881;29;20055;-74
2022/11/27 04:39:14;;;;;;;23.88;5.72;;;;;;;4.79;100.00;102242.19;4890633;29;20044;-75
2022/11/27 04:41:40;;;;;;;17.08;6.50;;;;;;;4.77;100.00;102243.94;4890462;29;20045;-74
2022/11/27 04:44:05;;;;;;;17.50;5.82;;;;;;;4.80;100.00;102236.00;4890704;29;20044;-75
2022/11/27 04:46:31;;;;;;;17.40;6.82;;;;;;;4.79;100.00;102231.59;4888959;29;20155;-75
2022/11/27 04:48:56;;;;;;;19.27;6.03;;;;;;;4.77;100.00;102234.28;4890723;29;20064;-74
2022/11/27 04:51:22;;;;;;;24.00;6.57;;;;;;;4.80;100.00;102238.63;4890776;29;20056;-77
2022/11/27 04:53:48;;;;;;;13.85;6.45;;;;;;;4.78;100.00;102237.78;4891113;29;20092;-76
2022/11/27 04:56:13;;;;;;;21.45;6.43;;;;;;;4.83;100.00;102242.09;4890700;29;20135;-74
2022/11/27 04:58:38;;;;;;;14.93;5.88;;;;;;;4.83;100.00;102236.81;4890655;29;20048;-75
2022/11/27 05:01:05;;;;;;;17.63;6.60;;;;;;;4.82;100.00;102235.06;4890151;29;20043;-75
2022/11/27 05:03:30;;;;;;;13.48;5.50;;;;;;;4.77;100.00;102234.28;4890131;29;20067;-75
2022/11/27 05:05:56;;;;;;;17.65;5.60;;;;;;;4.86;100.00;102235.88;4890189;29;20469;-75
2022/11/27 05:08:23;;;;;;;12.45;6.22;;;;;;;4.81;100.00;102227.16;4889894;29;20055;-75
2022/11/27 05:11:07;;;;;;;18.05;6.43;;;;;;;4.80;100.00;102226.28;4889181;29;20159;-76
2022/11/27 05:13:33;;;;;;;15.98;5.38;;;;;;;4.76;100.00;102232.50;4888318;29;20041;-74
2022/11/27 05:15:59;;;;;;;14.85;6.50;;;;;;;4.83;100.00;102228.03;4890130;29;20044;-74
2022/11/27 05:18:25;;;;;;;20.00;6.32;;;;;;;4.82;100.00;102231.53;4889906;29;20669;-75
2022/11/27 05:20:57;;;;;;;21.10;5.65;;;;;;;4.82;100.00;102220.97;4889965;29;20051;-75
2022/11/27 05:23:23;;;;;;;14.07;5.53;;;;;;;4.82;100.00;102219.22;4888099;29;20037;-75
2022/11/27 05:25:48;;;;;;;23.77;6.28;;;;;;;4.81;100.00;102208.66;4889911;29;20788;-76
2022/11/27 05:28:13;;;;;;;17.23;6.45;;;;;;;4.82;100.00;102216.59;4890173;29;20051;-74
2022/11/27 05:30:39;;;;;;;13.35;5.88;;;;;;;4.80;100.00;102201.63;4889912;29;20060;-74
2022/11/27 05:33:04;;;;;;;17.70;7.28;;;;;;;4.83;100.00;102186.59;4889291;29;20049;-74
2022/11/27 05:35:30;;;;;;;16.40;6.70;;;;;;;4.84;100.00;102190.13;4889444;29;20052;-75
2022/11/27 05:37:55;;;;;;;25.90;8.27;;;;;;;4.83;100.00;102183.97;4889741;29;20092;-75
2022/11/27 05:40:21;;;;;;;20.05;7.90;;;;;;;4.82;100.00;102186.59;4889953;29;20124;-75
2022/11/27 05:42:46;;;;;;;23.00;6.70;;;;;;;4.82;100.00;102184.88;4889625;29;20052;-74
2022/11/27 05:45:11;;;;;;;29.02;7.68;;;;;;;4.83;100.00;102191.88;4889482;29;20040;-75
2022/11/27 05:47:37;;;;;;;19.13;7.43;;;;;;;4.83;100.00;102185.72;4889675;29;20045;-75
2022/11/27 05:50:03;;;;;;;27.75;6.82;;;;;;;4.79;100.00;102173.47;4889455;29;20040;-75
2022/11/27 05:52:28;;;;;;;14.68;6.60;;;;;;;4.82;100.00;102171.66;4876043;29;20032;-75
2022/11/27 05:54:55;;;;;;;20.80;8.20;;;;;;;4.83;100.00;102173.38;4889394;29;20267;-75
2022/11/27 05:57:20;;;;;;;18.65;6.57;;;;;;;4.77;100.00;102173.50;4889787;29;20401;-74
2022/11/27 05:59:46;;;;;;;20.15;6.78;;;;;;;4.83;100.00;102170.75;4889647;29;20048;-74
2022/11/27 06:02:11;;;;;;;23.65;7.97;;;;;;;4.81;100.00;102167.25;4889302;29;20053;-75
2022/11/27 06:04:37;;;;;;;21.58;7.78;;;;;;;4.83;100.00;102168.09;4888358;29;20040;-76
2022/11/27 06:07:02;;;;;;;20.65;7.40;;;;;;;4.84;100.00;102171.63;4890241;29;20044;-75
2022/11/27 06:09:27;;;;;;;26.63;8.98;;;;;;;4.86;100.00;102168.03;4885087;29;20053;-75
2022/11/27 06:11:53;;;;;;;24.70;8.40;;;;;;;4.86;100.00;102164.53;4887844;29;20044;-75
2022/11/27 06:14:18;;;;;;;32.00;8.52;;;;;;;4.84;100.00;102163.69;4888468;29;20048;-75
2022/11/27 06:16:44;;;;;;;23.58;9.70;;;;;;;4.86;100.00;102164.53;4880693;29;20056;-76
2022/11/27 06:19:09;;;;;;;33.85;9.60;;;;;;;4.87;100.00;102160.97;4888788;29;20057;-75
2022/11/27 06:21:35;;;;;;;22.77;8.52;;;;;;;4.91;100.00;102163.53;4884159;29;20100;-76
2022/11/27 06:24:02;;;;;;;25.05;8.27;;;;;;;4.88;100.00;102158.31;4880977;29;20044;-75
2022/11/27 06:26:29;;;;;;;20.80;7.82;;;;;;;4.94;100.00;102152.91;4887167;29;20817;-76
2022/11/27 06:28:56;;;;;;;22.25;8.73;;;;;;;4.88;100.00;102154.81;4886535;29;20037;-75
2022/11/27 06:31:24;;;;;;;23.33;8.85;;;;;;;4.88;100.00;102155.69;4889001;29;20627;-75
2022/11/27 06:33:52;;;;;;;28.48;8.50;;;;;;;4.87;100.00;102150.41;4882013;29;20115;-75
2022/11/27 06:36:18;;;;;;;22.25;7.97;;;;;;;4.86;100.00;102154.81;4880505;29;20048;-75
2022/11/27 06:38:44;;;;;;;19.75;8.10;;;;;;;4.93;100.00;102147.66;4875966;29;20831;-74
2022/11/27 06:41:18;;;;;;;18.73;8.80;;;;;;;4.94;100.00;102152.03;4883775;29;20047;-75
2022/11/27 06:43:44;;;;;;;28.30;9.80;;;;;;;4.91;100.00;102149.44;4879122;29;20041;-74
2022/11/27 06:46:15;;;;;;;28.40;8.82;;;;;;;4.89;100.00;102143.34;4883139;29;20044;-75
2022/11/27 06:48:41;;;;;;;21.42;8.18;;;;;;;4.90;100.00;102137.13;4883459;29;20052;-75
2022/11/27 06:51:09;;;;;;;21.85;8.50;;;;;;;4.96;100.00;102138.78;4883474;29;20036;-74
2022/11/27 06:53:36;;;;;;;28.27;9.35;;;;;;;4.96;100.00;102141.44;4888828;29;20045;-76
2022/11/27 06:56:06;;;;;;;24.58;8.55;;;;;;;4.96;100.00;102133.50;4889214;29;20041;-75
2022/11/27 06:58:31;;;;;;;31.60;9.55;;;;;;;5.00;100.00;102136.06;4886721;29;20045;-75
2022/11/27 07:01:03;;;;;;;23.98;8.88;;;;;;;4.98;100.00;102131.72;4883695;29;20413;-75
2022/11/27 07:03:29;;;;;;;21.02;9.95;;;;;;;4.98;100.00;102132.59;4890700;29;20052;-75
2022/11/27 07:05:54;;;;;;;23.23;8.60;;;;;;;4.96;100.00;102136.16;4889859;29;20045;-75
2022/11/27 07:08:21;;;;;;;24.48;10.25;;;;;;;4.97;100.00;102128.22;4889102;29;20092;-75
2022/11/27 07:10:46;;;;;;;25.33;10.02;;;;;;;5.01;100.00;102124.59;4887711;29;20597;-74
2022/11/27 07:13:12;;;;;;;27.45;9.50;;;;;;;4.98;100.00;102123.78;4883779;29;20043;-73
2022/11/27 07:15:37;;;;;;;21.90;9.52;;;;;;;5.05;100.00;102110.41;4885893;29;20053;-75
2022/11/27 07:18:03;;;;;;;32.60;10.20;;;;;;;5.04;100.00;102124.53;4886415;29;20072;-75
2022/11/27 07:20:28;;;;;;;25.00;9.43;;;;;;;5.03;100.00;102122.81;4888037;29;20925;-75
2022/11/27 07:22:54;;;;;;;25.23;8.95;;;;;;;5.04;100.00;102110.44;4878499;29;20056;-74
2022/11/27 07:25:20;;;;;;;28.85;10.40;;;;;;;5.08;100.00;102118.28;4879103;29;20044;-75
2022/11/27 07:27:45;;;;;;;22.58;9.95;;;;;;;5.09;100.00;102108.59;4876569;29;20092;-75
2022/11/27 07:30:11;;;;;;;26.17;9.35;;;;;;;5.09;100.00;102108.59;4882698;29;20048;-74
2022/11/27 07:32:36;;;;;;;24.20;9.38;;;;;;;5.13;100.00;102097.91;4880913;29;20041;-75
2022/11/27 07:35:02;;;;;;;32.03;10.88;;;;;;;5.09;100.00;102093.59;4879885;29;20040;-74
2022/11/27 07:37:31;;;;;;;29.83;9.52;;;;;;;5.12;100.00;102096.19;4885506;29;20091;-75
2022/11/27 07:39:56;;;;;;;26.77;9.77;;;;;;;5.11;100.00;102097.06;4877485;29;20117;-75
2022/11/27 07:42:22;;;;;;;26.35;9.15;;;;;;;5.18;100.00;102098.69;4884516;29;20087;-73
2022/11/27 07:44:47;;;;;;;24.65;9.13;;;;;;;5.19;100.00;102094.28;4882831;29;20040;-75
2022/11/27 07:47:13;;;;;;;27.40;9.10;;;;;;;5.28;100.00;102096.72;4880294;29;20058;-74
2022/11/27 07:49:38;;;;;;;27.92;11.30;;;;;;;5.29;100.00;102098.47;4886860;29;20055;-75
2022/11/27 07:52:04;;;;;;;30.98;10.68;;;;;;;5.31;100.00;102103.72;4882426;29;20029;-73
2022/11/27 07:54:29;;;;;;;30.23;10.55;;;;;;;5.34;100.00;102101.00;4886771;29;20662;-73
2022/11/27 07:56:55;;;;;;;22.08;9.07;;;;;;;5.32;100.00;102085.19;4886726;29;20037;-74
2022/11/27 07:59:20;;;;;;;25.67;10.20;;;;;;;5.26;100.00;102082.66;4886670;29;20726;-75
2022/11/27 08:01:46;;;;;;;32.42;10.65;;;;;;;5.32;100.00;102086.94;4882837;29;20070;-74
2022/11/27 08:04:11;;;;;;;32.90;10.73;;;;;;;5.25;100.00;102080.91;4886095;29;20092;-75
2022/11/27 08:06:37;;;;;;;23.10;9.15;;;;;;;5.30;100.00;102081.69;4880359;29;20044;-74
2022/11/27 08:09:02;;;;;;;27.70;9.57;;;;;;;5.28;100.00;102072.06;4883990;29;20052;-75
2022/11/27 08:11:31;;;;;;;29.90;10.57;;;;;;;5.30;100.00;102073.75;4887211;29;20580;-76
2022/11/27 08:13:59;;;;;;;35.95;11.80;;;;;;;5.32;100.00;102071.97;4896004;29;20040;-73
2022/11/27 08:16:25;;;;;;;23.13;10.15;;;;;;;5.33;100.00;102060.47;4884093;29;20028;-74
2022/11/27 08:18:51;;;;;;;24.67;10.48;;;;;;;5.26;100.00;102056.19;4879329;29;20033;-75
2022/11/27 08:21:17;;;;;;;32.42;9.07;;;;;;;5.32;100.00;102058.75;4886070;29;20615;-74
2022/11/27 08:23:43;;;;;;;25.75;10.10;;;;;;;5.30;100.00;102052.59;4873644;29;20141;-74
2022/11/27 08:26:10;;;;;;;40.47;11.88;;;;;;;5.29;100.00;102053.50;4878664;29;20047;-75
2022/11/27 08:28:36;;;;;;;31.88;9.95;;;;;;;5.38;100.00;102058.59;4883898;29;20045;-74
2022/11/27 08:31:04;;;;;;;28.73;10.63;;;;;;;5.35;100.00;102056.00;4878211;29;20052;-75
2022/11/27 08:33:30;;;;;;;24.52;9.75;;;;;;;5.41;100.00;102060.28;4885292;29;20044;-73
2022/11/27 08:35:55;;;;;;;26.77;9.68;;;;;;;5.37;100.00;102059.50;4885001;29;20095;-73
2022/11/27 08:38:21;;;;;;;23.02;9.38;;;;;;;5.40;100.00;102058.56;4882166;29;20572;-75
2022/11/27 08:40:57;;;;;;;27.13;10.55;;;;;;;5.34;100.00;102054.28;4883097;29;20048;-74
2022/11/27 08:43:24;;;;;;;25.88;9.02;;;;;;;5.45;100.00;102051.38;4872353;29;20119;-74
2022/11/27 08:45:49;;;;;;;22.65;9.75;;;;;;;5.43;100.00;102054.06;4888787;29;21556;-74
2022/11/27 08:48:15;;;;;;;26.23;11.38;;;;;;;5.46;100.00;102046.06;4889577;29;20055;-75
2022/11/27 08:50:41;;;;;;;26.27;10.25;;;;;;;5.46;100.00;102048.69;4885894;29;20044;-74
2022/11/27 08:53:06;;;;;;;25.45;10.98;;;;;;;5.44;100.00;102050.53;4889566;29;20128;-75
2022/11/27 08:55:32;;;;;;;22.13;9.80;;;;;;;5.48;100.00;102050.47;4883944;29;20062;-75
2022/11/27 08:57:57;;;;;;;29.08;10.32;;;;;;;5.44;100.00;102044.38;4890041;29;20048;-75
2022/11/27 09:00:23;;;;;;;28.05;9.32;;;;;;;5.43;100.00;102038.19;4888275;29;20048;-75
2022/11/27 09:02:48;;;;;;;19.67;9.20;;;;;;;5.49;100.00;102037.19;4888229;29;20051;-74
2022/11/27 09:05:13;;;;;;;23.23;10.43;;;;;;;5.41;100.00;102036.47;4890135;29;20761;-76
2022/11/27 09:07:40;;;;;;;24.83;8.68;;;;;;;5.35;100.00;102044.56;4890073;29;20052;-76
2022/11/27 09:10:07;;;;;;;19.15;8.98;;;;;;;5.28;100.00;102035.91;4890317;29;20052;-75
2022/11/27 09:12:32;;;;;;;30.35;9.82;;;;;;;5.31;100.00;102042.88;4889714;29;20619;-75
2022/11/27 09:14:58;;;;;;;23.60;9.35;;;;;;;5.34;100.00;102048.97;4889348;29;20044;-74
2022/11/27 09:17:23;;;;;;;26.35;10.15;;;;;;;5.36;100.00;102041.88;4890246;29;20040;-75
2022/11/27 09:19:49;;;;;;;24.67;9.93;;;;;;;5.25;100.00;102035.09;4886263;29;20947;-75
2022/11/27 09:22:14;;;;;;;25.38;9.18;;;;;;;5.24;100.00;102034.22;4872083;29;20064;-75
2022/11/27 09:24:40;;;;;;;35.28;11.23;;;;;;;5.33;100.00;102041.97;4888267;29;20714;-75
2022/11/27 09:27:05;;;;;;;22.80;8.98;;;;;;;5.39;100.00;102040.94;4889270;29;20056;-76
2022/11/27 09:29:33;;;;;;;21.50;9.13;;;;;;;5.40;100.00;102035.63;4897979;29;20115;-75
2022/11/27 09:31:59;;;;;;;19.27;9.65;;;;;;;5.33;100.00;102033.16;4880050;29;20553;-75
2022/11/27 09:34:25;;;;;;;23.50;10.63;;;;;;;5.37;100.00;102018.94;4887934;29;20047;-74
2022/11/27 09:36:51;;;;;;;24.50;9.32;;;;;;;5.31;100.00;102019.94;4886777;29;20478;-75
2022/11/27 09:39:18;;;;;;;20.52;10.13;;;;;;;5.32;100.00;102013.78;4885718;29;20032;-75
2022/11/27 09:41:56;;;;;;;26.92;9.75;;;;;;;5.23;100.00;102015.75;4879868;29;20049;-75
2022/11/27 09:44:51;;;;;;;29.58;8.80;;;;;;;5.25;100.00;102014.81;4897680;29;20029;-75
2022/11/27 09:47:23;;;;;;;20.92;7.53;;;;;;;5.24;100.00;102012.22;4901392;29;20044;-75
2022/11/27 09:50:11;;;;;;;30.77;9.02;;;;;;;5.30;100.00;102002.34;4883479;29;20036;-74
2022/11/27 09:52:45;;;;;;;24.85;8.95;;;;;;;5.35;100.00;102007.53;4884328;29;20032;-74
2022/11/27 09:55:22;;;;;;;28.30;9.00;;;;;;;5.35;100.00;101999.59;4888340;29;20059;-75
2022/11/27 09:57:56;;;;;;;24.00;8.57;;;;;;;5.41;100.00;101996.81;4879473;29;20471;-74
2022/11/27 10:00:22;;;;;;;22.75;8.65;;;;;;;5.43;100.00;101993.25;4879435;29;20049;-76
2022/11/27 10:02:48;;;;;;;21.25;8.35;;;;;;;5.47;100.00;101994.00;4886377;29;20044;-74
2022/11/27 10:05:21;;;;;;;26.98;8.85;;;;;;;5.48;100.00;101985.19;4883990;29;20048;-75
2022/11/27 10:07:57;;;;;;;23.85;8.00;;;;;;;5.52;100.00;101988.63;4881801;29;20296;-75
2022/11/27 10:10:53;;;;;;;23.63;8.57;;;;;;;5.61;100.00;101991.91;4885801;29;20112;-75
2022/11/27 10:13:25;;;;;;;21.60;9.05;;;;;;;5.68;100.00;101995.31;4878726;29;20040;-76
2022/11/27 10:16:06;;;;;;;34.83;10.38;;;;;;;5.72;100.00;101981.06;4884667;29;20131;-75
2022/11/27 10:18:46;;;;;;;17.80;8.68;;;;;;;5.77;100.00;101981.81;4887960;29;20045;-74
2022/11/27 10:21:21;;;;;;;20.35;8.77;;;;;;;5.84;100.00;101983.41;4889058;29;20612;-73
2022/11/27 10:23:52;;;;;;;21.33;8.52;;;;;;;5.91;100.00;101985.00;4889760;29;20044;-74
2022/11/27 10:26:24;;;;;;;25.35;8.88;;;;;;;5.93;100.00;101983.22;4889448;29;20482;-73
2022/11/27 10:28:59;;;;;;;21.67;9.30;;;;;;;5.99;100.00;101992.78;4889735;29;20056;-75
2022/11/27 10:31:39;;;;;;;19.27;8.95;;;;;;;5.91;100.00;101979.72;4901356;29;20048;-74
2022/11/27 10:34:28;;;;;;;19.48;9.05;;;;;;;6.13;100.00;101969.47;4888278;29;20059;-77
2022/11/27 10:36:56;;;;;;;16.95;8.20;;;;;;;6.20;100.00;101968.38;4888383;29;20401;-76
2022/11/27 10:39:35;;;;;;;22.38;8.10;;;;;;;6.13;100.00;101956.22;4896069;29;20051;-75
2022/11/27 10:42:09;;;;;;;15.98;8.25;;;;;;;6.25;100.00;101954.13;4892359;29;20036;-77
2022/11/27 10:45:05;;;;;;;22.80;8.35;;;;;;;6.22;100.00;101958.63;4893497;29;20154;-76
2022/11/27 10:47:32;;;;;;;22.55;8.40;;;;;;;6.31;100.00;101960.13;4884607;29;20057;-76
2022/11/27 10:49:58;;;;;;;18.90;8.70;;;;;;;6.35;100.00;101945.91;4887878;29;20535;-76
2022/11/27 10:52:24;;;;;;;19.10;7.65;;;;;;;6.34;100.00;101946.81;4889651;29;20705;-76
2022/11/27 10:55:00;;;;;;;22.58;9.77;;;;;;;6.38;100.00;101947.59;4890210;29;20044;-76
2022/11/27 10:57:47;;;;;;;17.30;9.02;;;;;;;6.34;100.00;101938.88;4889431;29;20048;-74
2022/11/27 11:00:23;;;;;;;20.15;9.05;;;;;;;6.46;100.00;101933.19;4882835;29;20603;-76
2022/11/27 11:02:59;;;;;;;20.92;8.55;;;;;;;6.36;100.00;101926.44;4889330;29;20045;-75
2022/11/27 11:05:26;;;;;;;22.45;8.52;;;;;;;6.41;100.00;101921.00;4888504;29;20463;-76
2022/11/27 11:07:56;;;;;;;19.85;8.38;;;;;;;6.46;100.00;101908.50;4889792;29;20604;-76
2022/11/27 11:10:52;;;;;;;14.60;7.78;;;;;;;6.35;100.00;101902.66;4887836;29;20843;-75
2022/11/27 11:13:26;;;;;;;25.95;8.27;;;;;;;6.46;100.00;101901.41;4887841;29;20043;-77
2022/11/27 11:16:05;;;;;;;21.75;7.80;;;;;;;6.57;100.00;101903.75;4889806;29;20056;-75
2022/11/27 11:18:34;;;;;;;23.08;7.80;;;;;;;6.53;100.00;101899.47;4889310;29;20044;-76
2022/11/27 11:21:06;;;;;;;20.88;7.50;;;;;;;6.54;100.00;101898.53;4887562;29;20056;-75
2022/11/27 11:23:39;;;;;;;14.57;8.23;;;;;;;6.52;100.00;101896.84;4888292;29;20096;-76
2022/11/27 11:26:28;;;;;;;20.55;8.32;;;;;;;6.56;100.00;101896.72;4889372;29;20080;-74